Time;durP1;ratioP1;P1;durP2;ratioP2;P2;SDS_P1;SDS_P2;PMS_P1;PMS_P2;Temp;Humidity;BMP_temperature;BMP_pressure;BME280_temperature;BME280_humidity;BME280_pressure;Samples;Min_cycle;Max_cycle;Signal;HPM_P1;HPM_P2
2022/12/09 00:01:18;;;;;;;4.45;4.05;;;17.30;56.70;;;;;;4975043;28;20178;-67
2022/12/09 00:03:45;;;;;;;4.93;4.50;;;17.30;56.70;;;;;;4975176;28;20245;-67
2022/12/09 00:06:22;;;;;;;5.18;4.68;;;17.30;57.20;;;;;;4974702;28;20213;-67
2022/12/09 00:08:49;;;;;;;5.13;4.63;;;17.30;56.70;;;;;;4976190;28;20240;-67
2022/12/09 00:11:14;;;;;;;6.03;5.43;;;17.30;56.70;;;;;;4959203;28;20178;-67
2022/12/09 00:13:40;;;;;;;6.20;5.57;;;17.20;56.60;;;;;;4976148;28;20197;-67
2022/12/09 00:16:13;;;;;;;6.30;5.70;;;17.30;56.70;;;;;;4974493;28;20222;-68
2022/12/09 00:18:40;;;;;;;6.63;5.18;;;17.30;56.60;;;;;;4975195;28;20260;-68
2022/12/09 00:21:24;;;;;;;6.15;5.55;;;17.30;56.70;;;;;;4974810;28;20197;-67
2022/12/09 00:23:53;;;;;;;6.20;5.60;;;17.30;56.60;;;;;;4975066;28;20170;-68
2022/12/09 00:26:21;;;;;;;6.20;5.55;;;17.30;56.60;;;;;;4974368;28;20209;-68
2022/12/09 00:28:49;;;;;;;6.43;5.75;;;17.30;56.70;;;;;;4974783;28;20194;-68
2022/12/09 00:31:24;;;;;;;6.00;5.40;;;17.30;56.70;;;;;;4975637;28;20178;-68
2022/12/09 00:33:51;;;;;;;6.07;5.47;;;17.30;56.70;;;;;;4974861;28;20173;-67
2022/12/09 00:36:20;;;;;;;5.90;5.40;;;17.30;56.70;;;;;;4974082;28;20229;-67
2022/12/09 00:38:47;;;;;;;5.93;5.18;;;17.30;56.60;;;;;;4974426;28;20185;-67
2022/12/09 00:41:14;;;;;;;5.68;5.07;;;17.30;56.70;;;;;;4974365;28;20196;-67
2022/12/09 00:43:41;;;;;;;5.38;4.88;;;17.30;57.20;;;;;;4974420;28;20271;-67
2022/12/09 00:46:07;;;;;;;5.82;5.22;;;17.30;56.70;;;;;;4957957;28;20205;-67
2022/12/09 00:48:36;;;;;;;5.57;5.07;;;17.30;56.70;;;;;;4974279;28;20185;-67
2022/12/09 00:51:02;;;;;;;5.00;4.50;;;17.30;56.60;;;;;;4983727;28;20279;-68
2022/12/09 00:53:28;;;;;;;5.15;4.65;;;17.30;56.60;;;;;;4993685;28;20263;-67
2022/12/09 00:55:53;;;;;;;5.53;5.03;;;17.30;56.70;;;;;;4973978;28;20254;-67
2022/12/09 00:58:19;;;;;;;5.80;5.20;;;17.30;56.60;;;;;;4974111;28;20189;-68
2022/12/09 01:00:45;;;;;;;5.30;4.78;;;17.30;56.60;;;;;;4957932;28;20189;-68
2022/12/09 01:03:16;;;;;;;5.45;4.85;;;17.30;56.70;;;;;;4974089;28;20190;-67
2022/12/09 01:05:42;;;;;;;5.03;4.55;;;17.30;56.70;;;;;;4989636;28;20201;-68
2022/12/09 01:08:11;;;;;;;5.30;4.70;;;17.20;56.60;;;;;;4975080;28;20236;-68
2022/12/09 01:10:39;;;;;;;5.35;4.88;;;17.30;56.70;;;;;;4973992;28;20269;-67
2022/12/09 01:13:05;;;;;;;5.05;4.55;;;17.30;56.60;;;;;;4973959;28;20265;-67
2022/12/09 01:15:31;;;;;;;4.95;4.38;;;17.30;56.60;;;;;;4973631;28;20213;-67
2022/12/09 01:17:58;;;;;;;4.47;4.07;;;17.30;56.60;;;;;;4973560;28;20221;-67
2022/12/09 01:20:25;;;;;;;4.93;4.43;;;17.30;56.70;;;;;;4973978;28;20196;-67
2022/12/09 01:22:51;;;;;;;4.97;4.50;;;17.30;56.60;;;;;;4973765;28;20260;-67
2022/12/09 01:25:17;;;;;;;4.70;4.30;;;17.30;56.50;;;;;;4974712;28;20209;-68
2022/12/09 01:27:43;;;;;;;4.68;4.20;;;17.30;56.50;;;;;;4989451;28;20732;-67
2022/12/09 01:30:12;;;;;;;4.57;4.18;;;17.30;56.60;;;;;;4973439;28;20193;-67
2022/12/09 01:32:39;;;;;;;5.07;4.57;;;17.30;56.60;;;;;;4973477;28;20203;-67
2022/12/09 01:35:05;;;;;;;4.45;4.05;;;17.30;56.60;;;;;;4973798;28;20189;-68
2022/12/09 01:37:33;;;;;;;4.90;4.40;;;17.30;56.60;;;;;;4974197;28;20240;-68
2022/12/09 01:40:00;;;;;;;4.30;3.90;;;17.30;56.60;;;;;;4973359;28;20567;-67
2022/12/09 01:42:26;;;;;;;4.30;3.90;;;17.30;56.60;;;;;;4973532;28;20274;-68
2022/12/09 01:45:20;;;;;;;4.93;4.43;;;17.30;56.50;;;;;;4973368;28;20212;-68
2022/12/09 01:47:56;;;;;;;4.00;3.70;;;17.30;56.60;;;;;;4973129;28;20256;-67
2022/12/09 01:50:25;;;;;;;4.15;3.75;;;17.30;56.60;;;;;;4973510;28;20266;-67
2022/12/09 01:52:55;;;;;;;3.67;3.38;;;17.30;56.60;;;;;;4941786;28;20170;-68
2022/12/09 01:55:23;;;;;;;4.45;4.05;;;17.30;56.60;;;;;;4973174;28;20732;-67
2022/12/09 01:57:49;;;;;;;4.32;3.92;;;17.30;56.60;;;;;;4972571;28;20259;-68
2022/12/09 02:00:15;;;;;;;3.70;3.38;;;17.30;56.60;;;;;;4972977;28;20205;-67
2022/12/09 02:02:47;;;;;;;4.90;3.50;;;17.30;56.60;;;;;;4973444;28;20205;-67
2022/12/09 02:05:20;;;;;;;4.38;3.95;;;17.30;56.60;;;;;;4973701;28;20181;-67
2022/12/09 02:07:51;;;;;;;4.03;3.72;;;17.30;56.60;;;;;;4973447;28;20209;-68
2022/12/09 02:10:20;;;;;;;3.92;3.53;;;17.30;56.60;;;;;;4972765;28;20185;-68
2022/12/09 02:13:27;;;;;;;4.13;3.72;;;17.30;56.60;;;;;;4975543;28;20210;-67
2022/12/09 02:16:00;;;;;;;4.00;3.60;;;17.30;56.60;;;;;;4987830;28;20184;-67
2022/12/09 02:18:43;;;;;;;4.00;3.60;;;17.30;56.60;;;;;;4972876;28;20174;-67
2022/12/09 02:21:39;;;;;;;3.60;3.30;;;17.30;56.60;;;;;;4972659;28;20177;-68
2022/12/09 02:24:53;;;;;;;3.75;3.38;;;17.30;56.60;;;;;;4969995;28;20195;-68
2022/12/09 02:27:28;;;;;;;5.63;3.25;;;17.30;56.50;;;;;;4942515;28;20213;-67
2022/12/09 02:30:13;;;;;;;4.20;3.55;;;17.30;56.60;;;;;;4956746;28;20239;-67
2022/12/09 02:33:20;;;;;;;4.00;3.70;;;17.30;56.60;;;;;;4972593;28;20184;-68
2022/12/09 02:36:04;;;;;;;3.25;2.95;;;17.30;56.60;;;;;;4972126;28;20274;-67
2022/12/09 02:38:32;;;;;;;3.40;3.10;;;17.20;56.50;;;;;;4972359;28;20576;-67
2022/12/09 02:41:20;;;;;;;3.58;3.28;;;17.30;56.60;;;;;;4972866;28;20177;-67
2022/12/09 02:44:04;;;;;;;4.45;3.78;;;17.30;56.60;;;;;;4972296;28;20182;-68
2022/12/09 02:46:34;;;;;;;3.13;2.88;;;17.30;56.60;;;;;;4972253;28;20219;-67
2022/12/09 02:49:04;;;;;;;3.53;3.22;;;17.30;56.60;;;;;;4972708;28;20188;-68
2022/12/09 02:51:34;;;;;;;2.95;2.65;;;17.30;56.60;;;;;;4956433;28;20173;-67
2022/12/09 02:54:18;;;;;;;3.28;2.95;;;17.30;56.60;;;;;;4972528;28;20182;-68
2022/12/09 02:56:59;;;;;;;3.50;2.80;;;17.30;56.60;;;;;;4956096;28;20315;-68
2022/12/09 02:59:27;;;;;;;3.42;3.05;;;17.30;56.60;;;;;;4973437;28;20166;-68
2022/12/09 03:02:06;;;;;;;3.20;2.90;;;17.30;56.60;;;;;;4973452;28;20268;-68
2022/12/09 03:04:32;;;;;;;3.30;3.00;;;17.30;56.50;;;;;;4988607;28;20186;-68
2022/12/09 03:07:34;;;;;;;3.35;2.97;;;17.30;56.60;;;;;;4971711;28;20237;-67
2022/12/09 03:10:15;;;;;;;3.15;2.90;;;17.30;56.60;;;;;;4972244;28;20220;-68
2022/12/09 03:12:50;;;;;;;3.22;2.92;;;17.30;56.50;;;;;;4972179;28;20178;-68
2022/12/09 03:15:24;;;;;;;2.97;2.70;;;17.30;56.40;;;;;;4977154;28;20235;-68
2022/12/09 03:17:52;;;;;;;3.30;2.65;;;17.30;56.50;;;;;;4971865;28;20209;-68
2022/12/09 03:20:27;;;;;;;3.42;2.97;;;17.20;56.40;;;;;;4956370;28;20240;-67
2022/12/09 03:22:59;;;;;;;2.83;2.60;;;17.30;56.50;;;;;;4972440;28;20184;-68
2022/12/09 03:25:39;;;;;;;3.05;2.85;;;17.30;56.50;;;;;;4972009;28;20180;-68
2022/12/09 03:28:13;;;;;;;2.92;2.70;;;17.30;56.50;;;;;;4957399;28;20221;-68
2022/12/09 03:30:44;;;;;;;2.83;2.63;;;17.30;56.50;;;;;;4976856;28;20225;-68
2022/12/09 03:33:14;;;;;;;2.95;2.65;;;17.30;56.50;;;;;;4975945;28;20186;-68
2022/12/09 03:35:54;;;;;;;3.00;2.70;;;17.30;56.50;;;;;;4991843;28;20285;-67
2022/12/09 03:38:25;;;;;;;2.90;2.70;;;17.30;56.40;;;;;;4978020;28;20240;-68
2022/12/09 03:41:04;;;;;;;2.97;2.65;;;17.30;56.40;;;;;;4978756;28;20264;-67
2022/12/09 03:43:39;;;;;;;3.63;2.85;;;17.30;56.40;;;;;;4978934;28;20173;-67
2022/12/09 03:46:05;;;;;;;2.70;2.50;;;17.30;56.40;;;;;;4978421;28;20716;-68
2022/12/09 03:48:31;;;;;;;2.60;2.40;;;17.30;56.40;;;;;;4978855;28;20181;-67
2022/12/09 03:51:24;;;;;;;2.63;2.42;;;17.30;56.40;;;;;;4978985;28;20188;-67
2022/12/09 03:54:02;;;;;;;2.53;2.33;;;17.30;56.40;;;;;;4978556;28;20243;-67
2022/12/09 03:56:37;;;;;;;2.50;2.30;;;17.30;56.40;;;;;;4994618;28;20271;-68
2022/12/09 03:59:09;;;;;;;2.45;2.25;;;17.30;56.40;;;;;;4994584;28;20177;-68
2022/12/09 04:01:36;;;;;;;2.20;2.05;;;17.30;56.40;;;;;;4994846;28;20688;-67
2022/12/09 04:04:02;;;;;;;2.60;2.40;;;17.30;56.40;;;;;;4994537;28;20181;-68
2022/12/09 04:06:28;;;;;;;2.80;2.60;;;17.30;56.50;;;;;;4994329;28;20205;-68
2022/12/09 04:08:54;;;;;;;2.75;2.55;;;17.30;56.40;;;;;;4994462;28;20477;-68
2022/12/09 04:11:19;;;;;;;2.63;2.35;;;17.30;56.50;;;;;;4994360;28;20223;-67
2022/12/09 04:13:45;;;;;;;3.00;2.70;;;17.30;56.40;;;;;;4978587;28;20195;-67
2022/12/09 04:16:11;;;;;;;3.75;2.30;;;17.30;56.40;;;;;;4995204;28;20205;-67
2022/12/09 04:18:36;;;;;;;2.78;2.53;;;17.30;56.40;;;;;;4994475;28;20173;-67
2022/12/09 04:21:08;;;;;;;2.65;2.45;;;17.30;56.40;;;;;;4994316;28;20204;-67
2022/12/09 04:23:34;;;;;;;2.70;2.50;;;17.30;56.30;;;;;;4976914;28;20193;-68
2022/12/09 04:26:01;;;;;;;2.90;2.60;;;17.30;56.40;;;;;;4974048;28;20190;-67
2022/12/09 04:28:26;;;;;;;2.40;2.20;;;17.30;56.40;;;;;;4974640;28;20276;-67
2022/12/09 04:30:52;;;;;;;2.50;2.30;;;17.30;56.40;;;;;;4976190;28;20184;-68
2022/12/09 04:33:18;;;;;;;2.42;2.22;;;17.30;56.40;;;;;;4958596;28;20194;-68
2022/12/09 04:35:43;;;;;;;3.40;3.10;;;17.30;56.40;;;;;;4990702;28;20185;-67
2022/12/09 04:38:09;;;;;;;2.38;2.20;;;17.30;56.40;;;;;;4974251;28;20205;-67
2022/12/09 04:40:36;;;;;;;4.85;2.47;;;17.30;56.40;;;;;;4974672;28;20291;-67
2022/12/09 04:43:02;;;;;;;2.40;2.20;;;17.30;56.40;;;;;;4974702;28;20189;-66
2022/12/09 04:45:27;;;;;;;2.67;2.47;;;17.30;56.50;;;;;;4990548;28;20217;-68
2022/12/09 04:47:53;;;;;;;2.63;2.42;;;17.30;56.40;;;;;;4974048;28;20312;-68
2022/12/09 04:50:19;;;;;;;2.60;2.40;;;17.30;56.40;;;;;;4990745;28;20211;-67
2022/12/09 04:52:45;;;;;;;2.42;2.22;;;17.30;56.40;;;;;;4974243;28;20563;-68
2022/12/09 04:55:12;;;;;;;2.78;2.50;;;17.30;56.40;;;;;;4974338;28;20194;-67
2022/12/09 04:57:38;;;;;;;2.70;2.50;;;17.30;56.40;;;;;;4990452;28;20697;-68
2022/12/09 05:00:06;;;;;;;2.42;2.22;;;17.30;56.40;;;;;;4977337;28;20221;-68
2022/12/09 05:02:32;;;;;;;2.60;2.40;;;17.30;56.40;;;;;;4977170;28;20188;-67
2022/12/09 05:05:00;;;;;;;2.92;2.63;;;17.30;56.40;;;;;;4977269;28;20181;-68
2022/12/09 05:07:27;;;;;;;2.70;2.50;;;17.30;56.30;;;;;;4994378;28;20251;-67
2022/12/09 05:09:53;;;;;;;2.47;2.28;;;17.30;56.30;;;;;;4977174;28;20223;-67
2022/12/09 05:12:19;;;;;;;3.10;2.42;;;17.30;56.40;;;;;;4993316;28;20208;-67
2022/12/09 05:14:45;;;;;;;2.53;2.33;;;17.30;56.40;;;;;;4993282;28;20648;-67
2022/12/09 05:17:10;;;;;;;2.58;2.38;;;17.30;56.40;;;;;;4976893;28;20225;-67
2022/12/09 05:19:36;;;;;;;2.60;2.40;;;17.30;56.40;;;;;;4994397;28;20181;-67
2022/12/09 05:22:02;;;;;;;2.50;2.30;;;17.30;56.40;;;;;;4994620;28;20177;-68
2022/12/09 05:24:27;;;;;;;2.80;2.40;;;17.30;56.40;;;;;;4977133;28;20177;-68
2022/12/09 05:26:53;;;;;;;2.53;2.33;;;17.30;56.40;;;;;;4976773;28;20633;-68
2022/12/09 05:29:19;;;;;;;2.65;2.45;;;17.30;57.00;;;;;;4994029;28;20666;-68
2022/12/09 05:31:46;;;;;;;2.90;2.70;;;17.30;56.40;;;;;;4992594;28;20197;-68
2022/12/09 05:34:12;;;;;;;2.83;2.63;;;17.30;56.40;;;;;;4992823;28;20188;-67
2022/12/09 05:36:38;;;;;;;2.42;2.22;;;17.30;56.40;;;;;;4976181;28;20221;-68
2022/12/09 05:39:04;;;;;;;2.70;2.50;;;17.30;56.40;;;;;;4993880;28;20726;-68
2022/12/09 05:41:29;;;;;;;2.75;2.53;;;17.30;56.40;;;;;;4976666;28;20563;-68
2022/12/09 05:43:55;;;;;;;2.33;2.13;;;17.30;56.40;;;;;;4992671;28;20192;-67
2022/12/09 05:46:21;;;;;;;2.53;2.33;;;17.30;56.40;;;;;;4992359;28;20596;-68
2022/12/09 05:48:47;;;;;;;2.70;2.50;;;17.30;56.40;;;;;;4992489;28;20240;-68
2022/12/09 05:51:26;;;;;;;2.50;2.30;;;17.30;56.40;;;;;;4976386;28;20181;-68
2022/12/09 05:53:53;;;;;;;2.90;2.47;;;17.30;56.50;;;;;;4976260;28;20660;-68
2022/12/09 05:56:21;;;;;;;2.90;2.70;;;17.30;56.40;;;;;;4992029;28;20224;-68
2022/12/09 05:58:47;;;;;;;3.08;2.78;;;17.30;56.40;;;;;;4992564;28;20563;-68
2022/12/09 06:01:13;;;;;;;3.00;2.80;;;17.30;56.40;;;;;;4992455;28;20223;-67
2022/12/09 06:03:40;;;;;;;3.40;3.10;;;17.30;56.30;;;;;;4976122;28;20200;-67
2022/12/09 06:06:08;;;;;;;2.70;2.50;;;17.30;56.40;;;;;;4972396;28;20559;-67
2022/12/09 06:08:34;;;;;;;3.65;2.47;;;17.30;56.40;;;;;;4973025;28;20166;-68
2022/12/09 06:11:00;;;;;;;2.80;2.60;;;17.30;56.40;;;;;;4973186;28;20182;-66
2022/12/09 06:13:26;;;;;;;2.67;2.45;;;17.30;56.40;;;;;;4972722;28;20188;-68
2022/12/09 06:15:52;;;;;;;2.75;2.55;;;17.30;56.40;;;;;;4987976;28;20189;-66
2022/12/09 06:18:17;;;;;;;2.95;2.65;;;17.30;56.40;;;;;;4972338;28;20229;-68
2022/12/09 06:20:43;;;;;;;3.40;3.10;;;17.30;56.40;;;;;;4987943;28;20181;-69
2022/12/09 06:23:09;;;;;;;3.40;3.10;;;17.30;56.40;;;;;;4972144;28;20253;-68
2022/12/09 06:25:35;;;;;;;2.83;2.63;;;17.30;56.40;;;;;;4988236;28;20201;-69
2022/12/09 06:28:01;;;;;;;3.00;2.70;;;17.30;56.40;;;;;;4971810;28;20312;-69
2022/12/09 06:30:27;;;;;;;3.20;2.92;;;17.30;56.40;;;;;;4988416;28;20196;-69
2022/12/09 06:32:53;;;;;;;2.95;2.75;;;17.30;56.40;;;;;;4973477;28;20189;-69
2022/12/09 06:35:18;;;;;;;2.67;2.47;;;17.30;56.40;;;;;;4988357;28;20204;-69
2022/12/09 06:37:44;;;;;;;2.67;2.47;;;17.30;56.40;;;;;;4987619;28;20232;-69
2022/12/09 06:40:10;;;;;;;3.20;2.90;;;17.30;56.40;;;;;;4973466;28;20178;-69
2022/12/09 06:42:36;;;;;;;3.33;2.72;;;17.30;56.50;;;;;;4988184;28;20190;-69
2022/12/09 06:45:03;;;;;;;3.05;2.75;;;17.30;56.40;;;;;;4955632;28;20196;-68
2022/12/09 06:47:28;;;;;;;2.72;2.53;;;17.30;56.40;;;;;;4988017;28;20249;-68
2022/12/09 06:49:56;;;;;;;3.20;2.90;;;17.30;56.50;;;;;;4987886;28;20202;-68
2022/12/09 06:52:22;;;;;;;2.72;2.53;;;17.30;56.40;;;;;;4972002;28;20213;-68
2022/12/09 06:54:48;;;;;;;3.22;2.92;;;17.30;56.40;;;;;;4989507;28;20275;-68
2022/12/09 06:57:14;;;;;;;3.30;3.00;;;17.30;56.40;;;;;;4971367;28;20308;-68
2022/12/09 06:59:39;;;;;;;3.47;3.17;;;17.30;56.40;;;;;;4971898;28;20192;-68
2022/12/09 07:02:06;;;;;;;3.55;3.25;;;17.30;56.30;;;;;;4971687;28;20194;-68
2022/12/09 07:04:31;;;;;;;3.33;3.03;;;17.30;56.40;;;;;;4975925;28;20237;-68
2022/12/09 07:06:57;;;;;;;3.40;3.10;;;17.30;56.30;;;;;;4975466;28;20209;-68
2022/12/09 07:09:23;;;;;;;3.70;3.30;;;17.30;56.40;;;;;;4975512;28;20197;-68
2022/12/09 07:11:49;;;;;;;3.20;2.90;;;17.30;56.40;;;;;;4975843;28;20673;-68
2022/12/09 07:14:17;;;;;;;3.00;2.80;;;17.30;56.40;;;;;;4975645;28;20198;-68
2022/12/09 07:16:43;;;;;;;3.38;3.08;;;17.30;56.40;;;;;;4975178;28;20214;-68
2022/12/09 07:19:19;;;;;;;3.67;3.15;;;17.30;56.40;;;;;;4975682;28;20177;-68
2022/12/09 07:21:45;;;;;;;3.50;3.20;;;17.30;56.40;;;;;;4975401;28;20181;-68
2022/12/09 07:24:13;;;;;;;3.40;3.10;;;17.30;56.40;;;;;;4975297;28;20178;-68
2022/12/09 07:26:39;;;;;;;3.83;3.08;;;17.30;56.50;;;;;;4975384;28;20210;-67
2022/12/09 07:29:06;;;;;;;3.22;2.92;;;17.30;56.50;;;;;;4986658;28;20215;-68
2022/12/09 07:31:33;;;;;;;3.35;3.05;;;17.30;56.50;;;;;;4994720;28;20443;-68
2022/12/09 07:33:59;;;;;;;3.00;2.70;;;17.30;56.50;;;;;;4994674;28;20200;-68
2022/12/09 07:36:28;;;;;;;3.97;3.47;;;17.30;56.50;;;;;;4994930;28;20220;-68
2022/12/09 07:39:20;;;;;;;3.45;3.15;;;17.30;56.40;;;;;;4993388;28;20247;-68
2022/12/09 07:41:52;;;;;;;3.40;3.10;;;17.30;56.50;;;;;;4977349;28;20702;-68
2022/12/09 07:44:18;;;;;;;3.40;3.10;;;17.30;56.40;;;;;;4994519;28;20204;-68
2022/12/09 07:46:44;;;;;;;3.92;3.53;;;17.40;56.50;;;;;;4992944;28;20595;-68
2022/12/09 07:49:10;;;;;;;3.83;3.35;;;17.30;56.50;;;;;;5009447;28;20191;-68
2022/12/09 07:51:36;;;;;;;3.08;2.78;;;17.30;56.50;;;;;;4976870;28;20195;-68
2022/12/09 07:54:02;;;;;;;3.40;3.10;;;17.30;56.50;;;;;;4977292;28;20268;-68
2022/12/09 07:56:28;;;;;;;3.25;3.00;;;17.30;56.50;;;;;;4992976;28;20316;-68
2022/12/09 07:58:55;;;;;;;3.35;3.05;;;17.40;56.60;;;;;;5009168;28;20220;-68
2022/12/09 08:01:28;;;;;;;3.47;3.17;;;17.40;56.60;;;;;;4976737;28;20188;-68
2022/12/09 08:03:55;;;;;;;3.42;3.00;;;17.30;56.60;;;;;;4976903;28;20188;-68
2022/12/09 08:06:24;;;;;;;3.85;3.38;;;17.40;56.60;;;;;;4989533;28;20267;-68
2022/12/09 08:08:50;;;;;;;3.35;3.05;;;17.30;56.60;;;;;;4993178;28;20283;-68
2022/12/09 08:11:27;;;;;;;3.60;3.30;;;17.30;56.60;;;;;;4976642;28;20183;-68
2022/12/09 08:13:57;;;;;;;3.42;3.15;;;17.40;56.60;;;;;;4992782;28;20191;-68
2022/12/09 08:16:23;;;;;;;3.13;2.83;;;17.40;56.60;;;;;;4976385;28;20207;-68
2022/12/09 08:18:51;;;;;;;3.50;3.20;;;17.40;56.60;;;;;;4994186;28;20181;-68
2022/12/09 08:21:25;;;;;;;3.95;3.55;;;17.40;56.60;;;;;;4993806;28;20715;-68
2022/12/09 08:23:52;;;;;;;3.67;3.38;;;17.40;56.60;;;;;;4993994;28;20191;-68
2022/12/09 08:26:22;;;;;;;3.55;3.25;;;17.40;56.60;;;;;;4976104;28;20209;-68
2022/12/09 08:28:49;;;;;;;3.70;3.38;;;17.40;56.60;;;;;;4992641;28;20192;-68
2022/12/09 08:31:19;;;;;;;3.55;3.25;;;17.40;56.60;;;;;;4992647;28;20231;-68
2022/12/09 08:33:44;;;;;;;3.80;3.40;;;17.40;56.60;;;;;;4992668;28;20247;-68
2022/12/09 08:36:14;;;;;;;3.75;3.45;;;17.40;56.60;;;;;;4956538;28;1038953;-68
2022/12/09 08:38:41;;;;;;;3.67;3.35;;;17.40;56.60;;;;;;4993519;28;20185;-68
2022/12/09 08:41:12;;;;;;;3.88;3.58;;;17.40;56.70;;;;;;4993610;28;20687;-68
2022/12/09 08:43:40;;;;;;;4.35;3.50;;;17.40;56.70;;;;;;4993610;28;20212;-68
2022/12/09 08:46:06;;;;;;;3.97;3.58;;;17.40;56.70;;;;;;4977042;28;20708;-66
2022/12/09 08:48:36;;;;;;;4.15;3.70;;;17.40;56.70;;;;;;4993295;28;20212;-68
2022/12/09 08:51:03;;;;;;;3.78;3.47;;;17.40;56.70;;;;;;4977051;28;20251;-68
2022/12/09 08:53:29;;;;;;;3.53;3.22;;;17.40;56.70;;;;;;4993326;28;20192;-68
2022/12/09 08:55:55;;;;;;;3.80;3.38;;;17.40;56.70;;;;;;4992882;28;20192;-68
2022/12/09 08:58:21;;;;;;;3.65;3.35;;;17.40;56.60;;;;;;4976681;28;20212;-68
2022/12/09 09:00:46;;;;;;;4.10;3.80;;;17.40;56.60;;;;;;4976907;28;20196;-68
2022/12/09 09:03:12;;;;;;;3.80;3.50;;;17.40;56.70;;;;;;4993020;28;20586;-68
2022/12/09 09:05:38;;;;;;;3.83;3.42;;;17.40;56.60;;;;;;4976992;28;20623;-68
2022/12/09 09:08:04;;;;;;;3.50;3.20;;;17.40;56.60;;;;;;4976802;28;20234;-68
2022/12/09 09:10:29;;;;;;;3.95;3.65;;;17.40;56.70;;;;;;4993088;28;20195;-68
2022/12/09 09:12:56;;;;;;;3.90;3.60;;;17.40;56.70;;;;;;4992895;28;20183;-68
2022/12/09 09:15:22;;;;;;;4.15;3.75;;;17.40;56.70;;;;;;4992932;28;20220;-68
2022/12/09 09:17:48;;;;;;;3.53;3.22;;;17.40;56.70;;;;;;4976117;28;20228;-68
2022/12/09 09:20:13;;;;;;;3.75;3.40;;;17.40;56.70;;;;;;4992531;28;20189;-68
2022/12/09 09:22:39;;;;;;;3.80;3.50;;;17.40;56.70;;;;;;4976526;28;20227;-68
2022/12/09 09:25:05;;;;;;;4.15;3.75;;;17.40;56.70;;;;;;4992249;28;20246;-68
2022/12/09 09:27:32;;;;;;;3.60;3.30;;;17.40;56.70;;;;;;4976095;28;20243;-68
2022/12/09 09:29:58;;;;;;;3.65;3.35;;;17.40;56.70;;;;;;5008945;28;20235;-68
2022/12/09 09:32:24;;;;;;;3.78;3.47;;;17.40;56.70;;;;;;4992822;28;20192;-68
2022/12/09 09:34:51;;;;;;;4.20;3.80;;;17.40;56.80;;;;;;4976217;28;20189;-68
2022/12/09 09:40:09;;;;;;;3.92;3.63;;;17.40;56.80;;;;;;5012136;28;20598;-70
2022/12/09 09:42:47;;;;;;;4.13;3.72;;;17.40;56.80;;;;;;5012719;28;20194;-70
2022/12/09 09:45:19;;;;;;;3.60;3.30;;;17.40;56.80;;;;;;4996339;28;20176;-70
2022/12/09 09:48:01;;;;;;;4.00;3.60;;;17.40;56.70;;;;;;5013629;28;20207;-70
2022/12/09 09:50:55;;;;;;;4.22;3.83;;;17.40;56.70;;;;;;5012588;28;20226;-71
2022/12/09 09:53:29;;;;;;;3.65;3.35;;;17.40;56.70;;;;;;5013836;28;20292;-69
2022/12/09 09:55:59;;;;;;;4.20;3.80;;;17.40;56.80;;;;;;5013587;28;20181;-70
2022/12/09 09:58:40;;;;;;;4.13;3.72;;;17.40;56.80;;;;;;5012045;28;20230;-70
2022/12/09 10:01:13;;;;;;;4.03;3.63;;;17.40;56.70;;;;;;5012476;28;20176;-71
2022/12/09 10:04:19;;;;;;;4.05;3.65;;;17.40;56.70;;;;;;4996069;28;20180;-70
2022/12/09 10:07:11;;;;;;;4.22;3.80;;;17.40;56.70;;;;;;5013305;28;20203;-71
2022/12/09 10:10:10;;;;;;;3.75;3.45;;;17.40;56.80;;;;;;4996497;28;20180;-69
2022/12/09 10:12:53;;;;;;;3.67;3.38;;;17.50;56.80;;;;;;5012634;28;20230;-71
2022/12/09 10:15:28;;;;;;;4.07;3.67;;;17.40;56.70;;;;;;4993441;28;20216;-69
2022/12/09 10:18:24;;;;;;;4.57;3.65;;;17.50;56.80;;;;;;5011552;28;20227;-69
2022/12/09 10:20:51;;;;;;;4.30;3.90;;;17.40;56.70;;;;;;5011688;28;20270;-68
2022/12/09 10:23:17;;;;;;;4.05;3.65;;;17.50;56.80;;;;;;5028382;28;20263;-67
2022/12/09 10:26:05;;;;;;;4.13;3.72;;;17.50;56.80;;;;;;4995409;28;20283;-67
2022/12/09 10:28:45;;;;;;;4.30;3.90;;;17.50;56.80;;;;;;4995164;28;20258;-68
2022/12/09 10:31:10;;;;;;;3.70;3.40;;;17.40;56.80;;;;;;5028214;28;20210;-67
2022/12/09 10:33:39;;;;;;;4.32;3.92;;;17.50;56.80;;;;;;5028226;28;20207;-67
2022/12/09 10:36:23;;;;;;;4.03;3.63;;;17.40;56.70;;;;;;5011436;28;20191;-67
2022/12/09 10:38:48;;;;;;;4.60;4.15;;;17.50;56.80;;;;;;5027129;28;20211;-68
2022/12/09 10:44:28;;;;;;;4.45;4.05;;;17.40;56.80;;;;;;5011835;28;20198;-68
2022/12/09 10:47:23;;;;;;;4.35;3.95;;;17.50;56.90;;;;;;5027608;28;20196;-68
2022/12/09 10:49:52;;;;;;;4.30;3.90;;;17.50;56.90;;;;;;5011483;28;20198;-68
2022/12/09 10:52:41;;;;;;;4.57;4.18;;;17.50;56.90;;;;;;5027829;28;20172;-67
2022/12/09 10:55:29;;;;;;;4.55;3.90;;;17.50;56.90;;;;;;5027962;28;20315;-68
2022/12/09 10:58:30;;;;;;;4.50;4.10;;;17.50;56.80;;;;;;4994699;28;20315;-70
2022/12/09 11:01:10;;;;;;;4.25;3.90;;;17.50;56.80;;;;;;5011822;28;20325;-68
2022/12/09 11:03:47;;;;;;;4.68;4.28;;;17.50;57.00;;;;;;5027890;28;20172;-68
2022/12/09 11:06:23;;;;;;;4.53;4.10;;;17.40;56.80;;;;;;5027988;28;20191;-68
2022/12/09 11:08:59;;;;;;;4.57;4.18;;;17.50;56.90;;;;;;5027742;28;20180;-69
2022/12/09 11:11:43;;;;;;;4.30;3.90;;;17.50;56.90;;;;;;5011372;28;20195;-69
2022/12/09 11:14:28;;;;;;;4.60;4.20;;;17.50;56.90;;;;;;5011241;28;20192;-68
2022/12/09 11:17:12;;;;;;;4.30;3.90;;;17.50;56.90;;;;;;5027201;28;20220;-68
2022/12/09 11:19:39;;;;;;;4.20;3.90;;;17.40;56.80;;;;;;5008260;28;20185;-68
2022/12/09 11:22:39;;;;;;;5.13;4.15;;;17.40;56.80;;;;;;4991632;28;20180;-69
2022/12/09 11:25:11;;;;;;;4.60;4.20;;;17.50;56.90;;;;;;5006731;28;20298;-69
2022/12/09 11:28:04;;;;;;;4.85;4.40;;;17.50;56.80;;;;;;4994610;28;20237;-69
2022/12/09 11:30:37;;;;;;;4.65;4.25;;;17.50;56.80;;;;;;5021644;28;20204;-69
2022/12/09 11:33:22;;;;;;;4.28;3.92;;;17.50;56.90;;;;;;5027578;28;20250;-69
2022/12/09 11:35:47;;;;;;;5.07;4.22;;;17.50;57.50;;;;;;4991719;28;20200;-68
2022/12/09 11:38:29;;;;;;;4.40;4.00;;;17.40;56.80;;;;;;5001656;28;20212;-69
2022/12/09 11:41:10;;;;;;;4.60;4.20;;;17.50;56.90;;;;;;5007383;28;20231;-68
2022/12/09 11:43:51;;;;;;;4.78;4.38;;;17.50;57.00;;;;;;5011357;28;20184;-68
2022/12/09 11:46:27;;;;;;;4.43;4.03;;;17.50;56.90;;;;;;5007626;28;20181;-68
2022/12/09 11:49:04;;;;;;;4.32;3.92;;;17.50;56.90;;;;;;4995119;28;20192;-70
2022/12/09 11:51:36;;;;;;;3.90;3.60;;;17.50;56.90;;;;;;5011532;28;20176;-69
2022/12/09 11:54:32;;;;;;;4.53;4.13;;;17.50;56.90;;;;;;5011734;28;20204;-68
2022/12/09 11:56:59;;;;;;;4.72;4.30;;;17.50;56.90;;;;;;5011256;28;20221;-69
2022/12/09 11:59:47;;;;;;;4.15;3.80;;;17.50;57.00;;;;;;5029227;28;20230;-69
2022/12/09 12:02:33;;;;;;;4.00;3.70;;;17.50;56.90;;;;;;5031099;28;20613;-68
2022/12/09 12:05:24;;;;;;;4.63;3.67;;;17.50;56.90;;;;;;4998133;28;20279;-69
2022/12/09 12:08:12;;;;;;;3.83;3.53;;;17.50;56.90;;;;;;5014282;28;20300;-69
2022/12/09 12:10:50;;;;;;;4.30;3.90;;;17.50;56.90;;;;;;4998518;28;20192;-70
2022/12/09 12:13:28;;;;;;;3.78;3.42;;;17.50;56.90;;;;;;5015564;28;20713;-69
2022/12/09 12:16:37;;;;;;;3.97;3.50;;;17.50;56.90;;;;;;5025672;28;20177;-69
2022/12/09 12:19:37;;;;;;;4.03;3.72;;;17.40;56.90;;;;;;5018772;28;20192;-69
2022/12/09 12:22:21;;;;;;;3.85;3.50;;;17.50;56.90;;;;;;5015286;28;20238;-70
2022/12/09 12:25:23;;;;;;;3.50;3.20;;;17.50;56.90;;;;;;5015414;28;20176;-70
2022/12/09 12:28:40;;;;;;;3.88;3.58;;;17.50;57.00;;;;;;5013692;28;20265;-69
2022/12/09 12:31:17;;;;;;;3.60;3.30;;;17.50;57.00;;;;;;4986407;28;20291;-69
2022/12/09 12:34:40;;;;;;;3.80;3.50;;;17.50;56.90;;;;;;5013855;28;20188;-68
2022/12/09 12:37:29;;;;;;;4.13;3.75;;;17.50;56.90;;;;;;4992791;28;20711;-69
2022/12/09 12:39:59;;;;;;;3.78;3.47;;;17.40;56.90;;;;;;5013789;28;20287;-70
2022/12/09 12:42:28;;;;;;;4.28;3.88;;;17.50;57.00;;;;;;5013626;28;20180;-70
2022/12/09 12:48:13;;;;;;;3.88;3.47;;;17.50;57.50;;;;;;5013320;28;20242;-69
2022/12/09 12:51:13;;;;;;;3.75;3.45;;;17.50;56.90;;;;;;5017615;28;20205;-69
2022/12/09 12:54:08;;;;;;;3.88;3.58;;;17.50;56.90;;;;;;4978371;28;20188;-69
2022/12/09 12:57:00;;;;;;;4.30;3.90;;;17.50;57.00;;;;;;5009985;28;20595;-68
2022/12/09 12:59:39;;;;;;;4.28;3.88;;;17.50;57.00;;;;;;4978059;28;20180;-69
2022/12/09 13:02:58;;;;;;;4.28;3.88;;;17.50;57.00;;;;;;4994744;28;20180;-69
2022/12/09 13:05:34;;;;;;;3.67;3.38;;;17.50;57.00;;;;;;4986573;28;20177;-69
2022/12/09 13:08:24;;;;;;;3.70;3.40;;;17.50;57.00;;;;;;5011185;28;20239;-69
2022/12/09 13:10:57;;;;;;;3.90;3.42;;;17.50;57.00;;;;;;4994779;28;20251;-69
2022/12/09 13:13:36;;;;;;;3.85;3.53;;;17.50;57.00;;;;;;5003335;28;20229;-70
2022/12/09 13:16:26;;;;;;;3.63;3.33;;;17.50;57.00;;;;;;4994766;28;20175;-69
2022/12/09 13:18:57;;;;;;;4.13;3.72;;;17.50;57.00;;;;;;4993690;28;20298;-69
2022/12/09 13:21:23;;;;;;;4.30;3.90;;;17.50;57.60;;;;;;5009914;28;20185;-69
2022/12/09 13:24:20;;;;;;;3.83;3.53;;;17.50;57.00;;;;;;4993279;28;20272;-70
2022/12/09 13:27:01;;;;;;;4.00;3.60;;;17.50;57.00;;;;;;4992909;28;20280;-69